Flugplatz Aeropuerto de Jerez (LEJR)

Hier findest Du alle Informationen zum Flugplatz Aeropuerto de Jerez (LEJR).

Informationen für Piloten zum Flugplatz Aeropuerto de Jerez

Hier findest Du alle relevanten Informationen, die Du als Pilot benötigst, um Aeropuerto de Jerez anzufliegen.

Flugplatz: Aeropuerto de Jerez ICAO-Code: LEJR
Frequenz Turm: 118.550 Mhz GAFOR Gebiet: -
Frequenz Ground: 121.600 Mhz Mogas: ja
Platzrunde: SO 1000 ft Landegebühr: 4,50 €
Platzhöhe: Sunrise: 05:05 Uhr UTC
Pisten: 02/20 - 2300 m x 45 m, ASPH Sunset: 19:38 Uhr UTC

Flugwetter am Flugplatz Aeropuerto de Jerez

Die METAR Information stammen aus EDTL (1711.30 km entfernt).

METAR Code:
2020/05/25 13:50
EDTL 251350Z 02009KT 340V040 CAVOK 19/09 Q1032

Flugschulen am Flugplatz Aeropuerto de Jerez

Am Flugplatz Aeropuerto de Jerez gibt es leider keine Flugschule.

Benachbarte Flugplätze und Flugschulen

Es gibt einen weiteren Flugplatz in einem Umkreis von 50 km um den Flugplatz Aeropuerto de Jerez.

Jetzt anmelden

Passwort vergessen

Umfrage Archiv

Wären Rettungsgeräte keine Pflicht mehr, würdet Ihr Euer UL trotzdem mit einem ausstatten?

Ja
79.8 %
Nein
20.2 %
Stimmen: 119 | Diskussion
Anzeige: Roland Aircraft
Statistik Alle Mitglieder

Aktuell sind 53 Besucher online.

Anzeige: VFR Sprechfunk Simulator


Anzeige: Pocket FMS